Time;durP1;ratioP1;P1;durP2;ratioP2;P2;SDS_P1;SDS_P2;PMS_P1;PMS_P2;Temp;Humidity;BMP_temperature;BMP_pressure;BME280_temperature;BME280_humidity;BME280_pressure;Samples;Min_cycle;Max_cycle;Signal;HPM_P1;HPM_P2
2023/11/16 00:01:57;;;;;;;8.70;7.57;;;7.40;99.90;;;;;;5040505;28;20555;-63
2023/11/16 00:04:23;;;;;;;15.50;6.60;;;7.40;99.90;;;;;;5038096;28;20446;-63
2023/11/16 00:06:48;;;;;;;11.80;7.00;;;7.40;99.90;;;;;;5052076;28;20836;-63
2023/11/16 00:09:15;;;;;;;6.50;5.90;;;7.40;99.90;;;;;;5037366;28;20213;-63
2023/11/16 00:11:41;;;;;;;8.70;6.63;;;7.50;99.90;;;;;;5034053;28;20178;-62
2023/11/16 00:14:08;;;;;;;7.30;6.53;;;7.50;99.90;;;;;;5040182;28;20440;-63
2023/11/16 00:16:34;;;;;;;8.03;6.50;;;7.50;99.90;;;;;;5043760;28;20516;-63
2023/11/16 00:19:00;;;;;;;5.80;5.20;;;7.60;99.90;;;;;;5042757;28;20984;-62
2023/11/16 00:21:26;;;;;;;8.07;5.87;;;7.60;99.90;;;;;;5048872;28;20199;-62
2023/11/16 00:23:52;;;;;;;7.60;5.97;;;7.60;99.90;;;;;;5045347;28;20791;-63
2023/11/16 00:26:18;;;;;;;5.73;5.13;;;7.60;99.90;;;;;;5044434;28;20415;-63
2023/11/16 00:28:45;;;;;;;7.80;6.23;;;7.60;99.90;;;;;;5043466;28;20417;-63
2023/11/16 00:31:13;;;;;;;7.30;6.20;;;7.60;99.90;;;;;;5038145;28;20430;-63
2023/11/16 00:33:40;;;;;;;6.87;6.07;;;7.60;99.90;;;;;;5038194;28;21061;-65
2023/11/16 00:36:11;;;;;;;9.30;6.00;;;7.60;99.90;;;;;;5040326;28;20921;-63
2023/11/16 00:38:38;;;;;;;9.27;8.17;;;7.70;99.90;;;;;;5041397;28;20419;-63
2023/11/16 00:41:06;;;;;;;13.53;6.50;;;7.60;99.90;;;;;;5049395;28;20510;-63
2023/11/16 00:43:34;;;;;;;8.40;5.30;;;7.60;99.90;;;;;;5036743;28;20895;-62
2023/11/16 00:46:04;;;;;;;6.60;5.97;;;7.60;99.90;;;;;;5037390;28;20937;-61
2023/11/16 00:48:33;;;;;;;6.70;5.30;;;7.60;99.90;;;;;;5041650;28;20433;-62
2023/11/16 00:50:58;;;;;;;7.60;5.37;;;7.70;99.90;;;;;;5040089;28;20926;-62
2023/11/16 00:53:25;;;;;;;6.80;5.37;;;7.60;99.90;;;;;;5041886;28;20457;-60
2023/11/16 00:55:51;;;;;;;9.50;5.83;;;7.70;99.90;;;;;;5045295;28;20180;-62
2023/11/16 00:58:19;;;;;;;10.43;6.40;;;7.70;99.90;;;;;;5045860;28;20438;-60
2023/11/16 01:00:46;;;;;;;12.10;5.80;;;7.70;99.90;;;;;;5041545;28;20451;-60
2023/11/16 01:03:11;;;;;;;5.83;4.60;;;7.70;99.90;;;;;;5038135;28;20439;-62
2023/11/16 01:05:38;;;;;;;9.13;5.63;;;7.70;99.90;;;;;;5041862;28;20430;-61
2023/11/16 01:08:09;;;;;;;12.77;5.07;;;7.80;99.90;;;;;;5042673;28;20199;-61
2023/11/16 01:10:37;;;;;;;6.83;5.37;;;7.80;99.90;;;;;;5043835;28;20424;-63
2023/11/16 01:13:07;;;;;;;7.83;4.70;;;7.80;99.90;;;;;;5046128;28;20431;-62
2023/11/16 01:15:38;;;;;;;4.83;4.37;;;7.80;99.90;;;;;;5042631;28;20469;-63
2023/11/16 01:18:16;;;;;;;9.03;4.50;;;7.80;99.90;;;;;;5039341;28;20466;-62
2023/11/16 01:20:43;;;;;;;8.10;5.07;;;7.80;99.90;;;;;;5041310;28;20493;-63
2023/11/16 01:23:12;;;;;;;4.77;3.97;;;7.80;99.90;;;;;;5019585;28;20424;-60
2023/11/16 01:25:44;;;;;;;9.53;6.17;;;7.80;99.90;;;;;;5041835;28;20416;-61
2023/11/16 01:28:15;;;;;;;7.87;4.27;;;7.80;99.90;;;;;;5045302;28;20450;-63
2023/11/16 01:30:41;;;;;;;5.83;4.40;;;7.80;99.90;;;;;;5043708;28;20419;-63
2023/11/16 01:33:08;;;;;;;11.73;4.63;;;7.80;99.90;;;;;;5041759;28;20423;-61
2023/11/16 01:35:40;;;;;;;6.17;4.77;;;7.80;99.90;;;;;;5040126;28;20238;-62
2023/11/16 01:38:06;;;;;;;6.17;4.10;;;7.80;99.90;;;;;;5039886;28;20436;-62
2023/11/16 01:40:33;;;;;;;6.27;5.20;;;7.80;99.90;;;;;;5038440;28;20895;-62
2023/11/16 01:42:59;;;;;;;7.77;4.80;;;7.80;99.90;;;;;;5039545;28;20422;-63
2023/11/16 01:45:32;;;;;;;6.60;4.60;;;7.80;99.90;;;;;;5046047;28;20507;-63
2023/11/16 01:48:08;;;;;;;6.33;4.80;;;7.80;99.90;;;;;;5039265;28;20219;-63
2023/11/16 01:50:38;;;;;;;7.70;4.80;;;7.80;99.90;;;;;;5040852;28;20419;-63
2023/11/16 01:53:13;;;;;;;7.10;5.07;;;7.80;99.90;;;;;;5038510;28;20426;-62
2023/11/16 01:55:41;;;;;;;8.10;5.40;;;7.80;99.90;;;;;;5036937;28;20475;-63
2023/11/16 01:58:09;;;;;;;7.50;5.17;;;7.80;99.90;;;;;;5040514;28;20804;-63
2023/11/16 02:00:36;;;;;;;6.77;4.67;;;7.80;99.90;;;;;;5041040;28;20459;-63
2023/11/16 02:03:04;;;;;;;8.67;4.23;;;7.80;99.90;;;;;;5040253;28;20470;-62
2023/11/16 02:05:34;;;;;;;7.70;4.20;;;7.80;99.90;;;;;;5040297;28;20418;-62
2023/11/16 02:08:10;;;;;;;7.13;4.73;;;7.70;99.90;;;;;;5040480;28;20996;-65
2023/11/16 02:10:37;;;;;;;10.17;4.30;;;7.70;99.90;;;;;;5041746;28;20422;-63
2023/11/16 02:13:04;;;;;;;7.03;4.40;;;7.80;99.90;;;;;;5035568;28;20463;-64
2023/11/16 02:15:31;;;;;;;7.93;4.50;;;7.70;99.90;;;;;;5042614;28;20421;-63
2023/11/16 02:18:01;;;;;;;8.50;6.30;;;7.80;99.90;;;;;;5045020;28;20815;-65
2023/11/16 02:20:29;;;;;;;9.40;4.83;;;7.80;99.90;;;;;;5041958;28;20497;-63
2023/11/16 02:22:55;;;;;;;5.63;5.17;;;7.70;99.90;;;;;;5037665;28;20463;-64
2023/11/16 02:25:26;;;;;;;16.70;4.93;;;7.70;99.90;;;;;;5040055;28;20428;-65
2023/11/16 02:27:53;;;;;;;4.80;3.73;;;7.70;99.90;;;;;;5044258;28;20439;-64
2023/11/16 02:30:19;;;;;;;9.10;4.80;;;7.70;99.90;;;;;;5041512;28;20423;-63
2023/11/16 02:32:45;;;;;;;5.77;3.77;;;7.70;99.90;;;;;;5037335;28;20426;-64
2023/11/16 02:35:12;;;;;;;9.43;4.50;;;7.70;99.90;;;;;;5041542;28;20826;-64
2023/11/16 02:37:38;;;;;;;7.73;4.37;;;7.70;99.90;;;;;;5046443;28;20822;-63
2023/11/16 02:40:05;;;;;;;8.60;4.07;;;7.70;99.90;;;;;;5055174;28;20783;-63
2023/11/16 02:42:31;;;;;;;6.83;3.80;;;7.70;99.90;;;;;;5051936;28;20485;-63
2023/11/16 02:44:57;;;;;;;11.80;5.33;;;7.70;99.90;;;;;;5054238;28;20430;-63
2023/11/16 02:47:24;;;;;;;3.90;3.60;;;7.70;99.90;;;;;;5046752;28;20481;-63
2023/11/16 02:49:49;;;;;;;5.60;4.73;;;7.70;99.90;;;;;;5051140;28;20439;-62
2023/11/16 02:52:15;;;;;;;4.70;4.20;;;7.70;99.90;;;;;;5043816;28;20432;-62
2023/11/16 02:54:41;;;;;;;8.13;4.77;;;7.70;99.90;;;;;;5043100;28;20222;-63
2023/11/16 02:57:07;;;;;;;8.17;3.60;;;7.70;99.90;;;;;;5051407;28;20188;-65
2023/11/16 02:59:35;;;;;;;9.93;3.63;;;7.70;99.90;;;;;;5059390;28;20204;-63
2023/11/16 03:02:07;;;;;;;6.73;4.10;;;7.70;99.90;;;;;;5050900;28;20854;-62
2023/11/16 03:04:33;;;;;;;5.77;3.93;;;7.70;99.90;;;;;;5055527;28;20410;-62
2023/11/16 03:06:59;;;;;;;4.90;3.43;;;7.70;99.90;;;;;;5058896;28;20491;-64
2023/11/16 03:09:25;;;;;;;7.63;5.87;;;7.70;99.90;;;;;;5050898;28;20967;-63
2023/11/16 03:11:50;;;;;;;7.03;4.20;;;7.70;99.90;;;;;;5057405;28;20181;-63
2023/11/16 03:14:16;;;;;;;6.23;4.00;;;7.70;99.90;;;;;;5064335;28;20187;-63
2023/11/16 03:16:45;;;;;;;6.80;4.30;;;7.70;99.90;;;;;;5038709;28;20179;-63
2023/11/16 03:19:11;;;;;;;5.27;3.70;;;7.70;99.90;;;;;;5056620;28;20223;-62
2023/11/16 03:21:37;;;;;;;8.73;4.00;;;7.70;99.90;;;;;;5057554;28;20457;-62
2023/11/16 03:24:03;;;;;;;6.60;4.80;;;7.70;99.90;;;;;;5039526;28;20639;-63
2023/11/16 03:26:29;;;;;;;5.80;4.20;;;7.70;99.90;;;;;;5047869;28;20557;-63
2023/11/16 03:28:58;;;;;;;6.00;4.30;;;7.70;99.90;;;;;;5050502;28;20434;-64
2023/11/16 03:31:24;;;;;;;5.23;3.50;;;7.70;99.90;;;;;;5041592;28;20274;-64
2023/11/16 03:33:49;;;;;;;5.07;4.23;;;7.60;99.90;;;;;;5049558;28;20524;-64
2023/11/16 03:36:16;;;;;;;6.73;4.20;;;7.70;99.90;;;;;;5051300;28;20426;-64
2023/11/16 03:38:41;;;;;;;6.10;4.10;;;7.70;99.90;;;;;;5047847;28;20200;-64
2023/11/16 03:41:07;;;;;;;6.10;4.60;;;7.70;99.90;;;;;;5050895;28;20456;-63
2023/11/16 03:43:33;;;;;;;5.43;3.73;;;7.70;99.90;;;;;;5051025;28;20177;-63
2023/11/16 03:45:58;;;;;;;5.63;3.43;;;7.70;99.90;;;;;;5046568;28;20175;-63
2023/11/16 03:48:24;;;;;;;4.57;4.07;;;7.60;99.90;;;;;;5032856;28;20192;-64
2023/11/16 03:50:49;;;;;;;4.20;3.90;;;7.60;99.90;;;;;;5051161;28;20217;-64
2023/11/16 03:53:15;;;;;;;5.50;3.50;;;7.60;99.90;;;;;;5051310;28;20181;-64
2023/11/16 03:55:41;;;;;;;3.80;3.43;;;7.60;99.90;;;;;;5044297;28;20187;-63
2023/11/16 03:58:07;;;;;;;8.20;3.40;;;7.70;99.90;;;;;;5051253;28;20710;-63
2023/11/16 04:00:33;;;;;;;5.67;4.27;;;7.60;99.90;;;;;;5042125;28;20192;-63
2023/11/16 04:02:59;;;;;;;7.00;4.60;;;7.70;99.90;;;;;;5061175;28;20428;-63
2023/11/16 04:05:26;;;;;;;6.70;3.83;;;7.70;99.90;;;;;;5054648;28;20222;-62
2023/11/16 04:07:54;;;;;;;6.33;3.47;;;7.70;99.90;;;;;;5052451;28;20484;-64
2023/11/16 04:10:20;;;;;;;6.57;3.63;;;7.70;99.90;;;;;;5045915;28;20449;-63
2023/11/16 04:12:45;;;;;;;5.23;3.30;;;7.70;99.90;;;;;;5053720;28;20452;-63
2023/11/16 04:15:14;;;;;;;7.93;3.57;;;7.70;99.90;;;;;;5058994;28;20197;-63
2023/11/16 04:17:40;;;;;;;10.60;3.53;;;7.70;99.90;;;;;;5050534;28;20181;-63
2023/11/16 04:20:11;;;;;;;9.03;3.83;;;7.70;99.90;;;;;;5046565;28;20426;-63
2023/11/16 04:22:39;;;;;;;9.23;3.90;;;7.70;99.90;;;;;;5044988;28;20428;-63
2023/11/16 04:25:19;;;;;;;3.67;3.37;;;7.70;99.90;;;;;;5040485;28;20432;-63
2023/11/16 04:27:45;;;;;;;4.80;3.00;;;7.70;99.90;;;;;;5050359;28;20416;-63
2023/11/16 04:30:13;;;;;;;6.60;3.33;;;7.80;99.90;;;;;;5048826;28;20436;-63
2023/11/16 04:32:42;;;;;;;8.23;3.80;;;7.80;99.90;;;;;;5050433;28;20419;-63
2023/11/16 04:35:09;;;;;;;8.53;4.00;;;7.80;99.90;;;;;;5051639;28;20920;-64
2023/11/16 04:37:37;;;;;;;3.70;3.13;;;7.80;99.90;;;;;;5049420;28;20836;-64
2023/11/16 04:40:13;;;;;;;10.23;3.27;;;7.80;99.90;;;;;;5054305;28;20438;-64
2023/11/16 04:42:43;;;;;;;5.87;3.27;;;7.80;99.90;;;;;;5042432;28;20421;-62
2023/11/16 04:45:11;;;;;;;6.20;3.23;;;7.80;99.90;;;;;;5053640;28;20931;-63
2023/11/16 04:47:46;;;;;;;3.20;2.90;;;7.80;99.90;;;;;;5048316;28;20512;-63
2023/11/16 04:50:16;;;;;;;11.00;5.23;;;7.80;99.90;;;;;;5051184;28;20425;-63
2023/11/16 04:52:45;;;;;;;5.10;3.20;;;7.80;99.90;;;;;;5045541;28;20505;-64
2023/11/16 04:55:11;;;;;;;4.33;3.17;;;7.80;99.90;;;;;;5053523;28;20447;-63
2023/11/16 04:57:37;;;;;;;7.57;4.00;;;7.70;99.90;;;;;;5044880;28;20473;-62
2023/11/16 05:00:10;;;;;;;6.73;3.27;;;7.60;99.90;;;;;;5052709;28;20177;-63
2023/11/16 05:02:36;;;;;;;3.00;2.70;;;7.50;99.90;;;;;;5052889;28;20535;-63
2023/11/16 05:05:03;;;;;;;5.97;3.37;;;7.50;99.90;;;;;;5036532;28;20476;-63
2023/11/16 05:07:29;;;;;;;4.80;3.57;;;7.60;99.90;;;;;;5041189;28;20811;-63
2023/11/16 05:09:58;;;;;;;3.87;3.47;;;7.60;99.90;;;;;;5046669;28;20440;-64
2023/11/16 05:12:24;;;;;;;4.77;3.47;;;7.60;99.90;;;;;;5040301;28;20515;-63
2023/11/16 05:14:49;;;;;;;5.07;4.13;;;7.60;99.90;;;;;;5045515;28;20427;-65
2023/11/16 05:17:15;;;;;;;11.83;3.53;;;7.70;99.90;;;;;;5054656;28;20418;-63
2023/11/16 05:19:41;;;;;;;4.70;3.23;;;7.60;99.90;;;;;;5037739;28;20224;-64
2023/11/16 05:22:06;;;;;;;5.90;3.60;;;7.70;99.90;;;;;;5048991;28;20196;-64
2023/11/16 05:24:32;;;;;;;5.93;3.40;;;7.60;99.90;;;;;;5039514;28;20181;-64
2023/11/16 05:27:02;;;;;;;8.37;3.97;;;7.60;99.90;;;;;;5033497;28;20243;-64
2023/11/16 05:29:29;;;;;;;4.13;3.07;;;7.60;99.90;;;;;;5048228;28;20204;-64
2023/11/16 05:31:56;;;;;;;5.83;3.80;;;7.60;99.90;;;;;;5050475;28;20423;-64
2023/11/16 05:34:22;;;;;;;7.47;4.13;;;7.60;99.90;;;;;;5048876;28;20481;-63
2023/11/16 05:36:48;;;;;;;4.80;3.60;;;7.60;99.90;;;;;;5046286;28;20446;-64
2023/11/16 05:39:16;;;;;;;5.87;3.10;;;7.70;99.90;;;;;;5047824;28;20432;-63
2023/11/16 05:41:42;;;;;;;5.40;4.00;;;7.70;99.90;;;;;;5045864;28;20334;-64
2023/11/16 05:44:07;;;;;;;4.23;3.40;;;7.70;99.90;;;;;;5043111;28;20502;-64
2023/11/16 05:46:33;;;;;;;3.67;3.17;;;7.70;99.90;;;;;;5056727;28;20169;-64
2023/11/16 05:48:59;;;;;;;10.80;4.83;;;7.70;99.90;;;;;;5047032;28;20280;-64
2023/11/16 05:51:24;;;;;;;8.20;3.47;;;7.70;99.90;;;;;;5045111;28;20640;-63
2023/11/16 05:53:50;;;;;;;13.00;4.17;;;7.80;99.90;;;;;;5043930;28;20582;-65
2023/11/16 05:56:16;;;;;;;8.60;3.47;;;7.70;99.90;;;;;;5043937;28;20179;-65
2023/11/16 05:58:42;;;;;;;5.90;3.43;;;7.80;99.90;;;;;;5051679;28;20197;-64
2023/11/16 06:01:11;;;;;;;3.43;2.93;;;7.80;99.90;;;;;;5049372;28;20686;-63
2023/11/16 06:03:39;;;;;;;9.30;4.17;;;7.70;99.90;;;;;;5041134;28;20521;-64
2023/11/16 06:06:05;;;;;;;4.30;2.93;;;7.70;99.90;;;;;;5040666;28;20420;-63
2023/11/16 06:08:31;;;;;;;7.60;4.33;;;7.80;99.90;;;;;;5041794;28;20942;-63
2023/11/16 06:10:57;;;;;;;4.90;3.80;;;7.70;99.90;;;;;;5043618;28;20448;-64
2023/11/16 06:13:23;;;;;;;10.60;4.20;;;7.80;99.90;;;;;;5051968;28;20419;-63
2023/11/16 06:15:49;;;;;;;7.30;4.80;;;7.80;99.90;;;;;;5043568;28;20184;-64
2023/11/16 06:18:16;;;;;;;8.50;4.43;;;7.80;99.90;;;;;;5046711;28;20230;-65
2023/11/16 06:20:43;;;;;;;12.20;4.53;;;7.80;99.90;;;;;;5049126;28;20466;-64
2023/11/16 06:23:08;;;;;;;4.47;3.83;;;7.80;99.90;;;;;;5060442;28;20452;-64
2023/11/16 06:25:34;;;;;;;5.70;3.40;;;7.80;99.90;;;;;;5060009;28;20453;-64
2023/11/16 06:28:00;;;;;;;4.20;3.10;;;7.80;99.90;;;;;;5060183;28;20766;-64
2023/11/16 06:30:25;;;;;;;4.50;3.23;;;7.80;99.90;;;;;;5060178;28;20525;-63
2023/11/16 06:32:51;;;;;;;5.73;3.00;;;7.80;99.90;;;;;;5060088;28;20637;-64
2023/11/16 06:35:17;;;;;;;5.60;4.10;;;7.80;99.90;;;;;;5071862;28;20297;-63
2023/11/16 06:37:43;;;;;;;5.03;3.33;;;7.90;99.90;;;;;;5070970;28;20517;-63
2023/11/16 06:40:09;;;;;;;5.63;3.77;;;7.90;99.90;;;;;;5067086;28;20644;-64
2023/11/16 06:42:36;;;;;;;6.30;4.10;;;7.90;99.90;;;;;;5057725;28;20661;-65
2023/11/16 06:45:04;;;;;;;5.87;3.80;;;7.90;99.90;;;;;;5042065;28;20444;-63
2023/11/16 06:47:32;;;;;;;8.63;4.10;;;7.90;99.90;;;;;;5040915;28;20436;-63
2023/11/16 06:49:58;;;;;;;5.40;4.00;;;7.90;99.90;;;;;;5047956;28;20428;-64
2023/11/16 06:52:26;;;;;;;3.63;3.27;;;7.90;99.90;;;;;;5041463;28;20432;-63
2023/11/16 06:54:53;;;;;;;4.30;3.40;;;7.90;99.90;;;;;;5050552;28;20849;-61
2023/11/16 06:57:22;;;;;;;5.17;3.33;;;7.90;99.90;;;;;;5043155;28;20425;-63
2023/11/16 06:59:52;;;;;;;3.97;3.53;;;7.90;99.90;;;;;;5050925;28;20474;-64
2023/11/16 07:02:19;;;;;;;5.20;4.00;;;7.90;99.90;;;;;;5043813;28;20467;-64
2023/11/16 07:04:46;;;;;;;7.60;3.33;;;8.00;99.90;;;;;;5039927;28;20438;-62
2023/11/16 07:07:11;;;;;;;4.13;2.97;;;8.00;99.90;;;;;;5051248;28;20465;-63
2023/11/16 07:09:37;;;;;;;6.03;3.30;;;8.00;99.90;;;;;;5043644;28;20468;-63
2023/11/16 07:12:04;;;;;;;6.40;3.73;;;8.00;99.90;;;;;;5040467;28;20184;-63
2023/11/16 07:14:29;;;;;;;7.90;2.53;;;8.00;99.90;;;;;;5051387;28;20187;-62
2023/11/16 07:16:56;;;;;;;5.33;3.13;;;8.10;99.90;;;;;;5043044;28;20844;-62
2023/11/16 07:19:22;;;;;;;12.03;4.37;;;8.00;99.90;;;;;;5051401;28;20221;-62
2023/11/16 07:21:48;;;;;;;2.90;2.60;;;8.10;99.90;;;;;;5050766;28;20520;-62
2023/11/16 07:24:14;;;;;;;10.93;3.20;;;8.10;99.90;;;;;;5051986;28;20830;-62
2023/11/16 07:26:40;;;;;;;8.47;4.13;;;8.20;99.90;;;;;;5051477;28;20430;-62
2023/11/16 07:29:06;;;;;;;5.17;3.50;;;8.20;99.90;;;;;;5043418;28;20296;-64
2023/11/16 07:31:32;;;;;;;8.77;3.27;;;8.20;99.90;;;;;;5053025;28;20181;-63
2023/11/16 07:33:58;;;;;;;6.23;3.40;;;8.30;99.90;;;;;;5048721;28;20616;-63
2023/11/16 07:36:27;;;;;;;5.13;3.10;;;8.20;99.90;;;;;;5053148;28;20522;-64
2023/11/16 07:38:54;;;;;;;4.57;3.23;;;8.30;99.90;;;;;;5044709;28;20203;-63
2023/11/16 07:41:20;;;;;;;4.57;3.77;;;8.30;99.90;;;;;;5048459;28;20467;-62
2023/11/16 07:43:46;;;;;;;8.80;3.30;;;8.30;99.90;;;;;;5047733;28;20419;-64
2023/11/16 07:46:12;;;;;;;6.00;3.00;;;8.30;99.90;;;;;;5044069;28;20410;-62
2023/11/16 07:48:39;;;;;;;7.73;3.90;;;8.30;99.90;;;;;;5039441;28;21281;-62
2023/11/16 07:51:07;;;;;;;4.53;2.70;;;8.30;99.90;;;;;;5042885;28;20830;-63
2023/11/16 07:53:33;;;;;;;4.83;2.50;;;8.30;99.90;;;;;;5053007;28;20434;-63
2023/11/16 07:56:05;;;;;;;8.50;3.03;;;8.30;99.90;;;;;;5046354;28;20573;-61
2023/11/16 07:58:31;;;;;;;5.70;3.50;;;8.30;99.90;;;;;;5048447;28;20499;-63
2023/11/16 08:01:04;;;;;;;4.93;3.43;;;8.30;99.90;;;;;;5046094;28;20501;-63
2023/11/16 08:03:42;;;;;;;4.87;2.80;;;8.30;99.90;;;;;;5048771;28;20498;-63
2023/11/16 08:06:14;;;;;;;16.03;4.60;;;8.30;99.90;;;;;;5052731;28;20432;-64
2023/11/16 08:08:41;;;;;;;8.63;4.27;;;8.30;99.90;;;;;;5043175;28;20437;-64
2023/11/16 08:11:08;;;;;;;3.50;3.20;;;8.30;99.90;;;;;;5046535;28;20456;-62
2023/11/16 08:13:35;;;;;;;6.67;4.07;;;8.30;99.90;;;;;;5055779;28;20496;-63
2023/11/16 08:16:04;;;;;;;8.23;4.00;;;8.20;99.90;;;;;;5041132;28;20483;-63
2023/11/16 08:18:30;;;;;;;9.97;4.10;;;8.20;99.90;;;;;;5038558;28;20454;-64
2023/11/16 08:20:56;;;;;;;6.80;3.87;;;8.20;99.90;;;;;;5050237;28;20981;-64
2023/11/16 08:23:22;;;;;;;5.37;3.37;;;8.20;99.90;;;;;;5050908;28;20436;-64
2023/11/16 08:25:50;;;;;;;6.63;3.73;;;8.30;99.90;;;;;;5042030;28;20416;-63
2023/11/16 08:28:19;;;;;;;4.40;2.60;;;8.30;99.90;;;;;;5038635;28;20686;-64
2023/11/16 08:30:45;;;;;;;4.90;3.10;;;8.30;99.90;;;;;;5051890;28;20422;-64
2023/11/16 08:33:11;;;;;;;5.60;3.03;;;8.30;99.90;;;;;;5045117;28;20423;-63
2023/11/16 08:35:37;;;;;;;13.87;4.83;;;8.40;99.90;;;;;;5049940;28;20413;-64
2023/11/16 08:38:05;;;;;;;3.53;3.23;;;8.40;99.90;;;;;;5049630;28;20205;-63
2023/11/16 08:40:31;;;;;;;8.63;3.77;;;8.40;99.90;;;;;;5038323;28;20428;-65
2023/11/16 08:42:57;;;;;;;5.27;2.90;;;8.40;99.90;;;;;;5038595;28;20856;-65
2023/11/16 08:45:25;;;;;;;8.33;3.60;;;8.30;99.90;;;;;;5038833;28;20497;-64
2023/11/16 08:47:52;;;;;;;6.23;3.10;;;8.40;99.90;;;;;;5043922;28;20251;-64
2023/11/16 08:50:19;;;;;;;4.20;2.63;;;8.40;99.90;;;;;;5040205;28;20516;-64
2023/11/16 08:52:48;;;;;;;8.90;3.30;;;8.50;99.90;;;;;;5042504;28;20424;-64
2023/11/16 08:55:16;;;;;;;4.83;2.80;;;8.50;99.90;;;;;;5041872;28;20970;-63
2023/11/16 08:57:45;;;;;;;6.13;3.30;;;8.40;99.90;;;;;;5042312;28;20856;-63
2023/11/16 09:03:09;;;;;;;9.13;3.20;;;8.50;99.90;;;;;;5051038;28;20411;-63
2023/11/16 09:05:39;;;;;;;3.93;2.73;;;8.50;99.90;;;;;;5044462;28;20459;-65
2023/11/16 09:08:10;;;;;;;6.00;2.60;;;8.60;99.90;;;;;;5051100;28;20425;-64
2023/11/16 09:10:36;;;;;;;8.40;3.87;;;8.50;99.90;;;;;;5052420;28;20428;-64
2023/11/16 09:13:03;;;;;;;6.70;3.20;;;8.60;99.90;;;;;;5052010;28;20481;-64
2023/11/16 09:15:33;;;;;;;5.80;2.60;;;8.60;99.90;;;;;;5046089;28;20412;-64
2023/11/16 09:17:59;;;;;;;7.87;3.63;;;8.50;99.90;;;;;;5039267;28;20527;-64
2023/11/16 09:20:28;;;;;;;6.83;3.17;;;8.50;99.90;;;;;;5051386;28;20460;-64
2023/11/16 09:22:57;;;;;;;10.30;4.90;;;8.50;99.90;;;;;;5050423;28;20792;-64
2023/11/16 09:25:25;;;;;;;6.20;4.17;;;8.50;99.90;;;;;;5052728;28;20442;-64
2023/11/16 09:27:54;;;;;;;8.57;3.80;;;8.50;99.90;;;;;;5051009;28;20443;-64
2023/11/16 09:30:25;;;;;;;3.10;2.67;;;8.60;99.90;;;;;;5046639;28;20794;-64
2023/11/16 09:32:55;;;;;;;3.73;3.43;;;8.70;99.90;;;;;;5046200;28;20794;-63
2023/11/16 09:35:22;;;;;;;4.00;2.53;;;8.70;99.90;;;;;;5049062;28;20405;-64
2023/11/16 09:37:49;;;;;;;6.70;3.03;;;8.70;99.90;;;;;;5041478;28;20936;-65
2023/11/16 09:40:24;;;;;;;6.00;2.93;;;8.80;99.90;;;;;;5038394;28;20410;-64
2023/11/16 09:43:00;;;;;;;8.60;2.30;;;9.00;99.90;;;;;;5042766;28;20780;-67
2023/11/16 09:45:29;;;;;;;3.83;2.10;;;8.90;99.90;;;;;;5046689;28;20403;-65
2023/11/16 09:48:06;;;;;;;5.40;2.23;;;8.90;99.90;;;;;;5045496;28;20433;-62
2023/11/16 09:50:33;;;;;;;3.30;2.13;;;8.80;99.90;;;;;;5041274;28;20433;-68
2023/11/16 09:53:00;;;;;;;7.27;3.53;;;8.80;99.90;;;;;;5043887;28;20409;-63
2023/11/16 09:55:30;;;;;;;4.13;2.47;;;8.70;99.90;;;;;;5036396;28;20426;-63
2023/11/16 09:58:09;;;;;;;9.20;3.13;;;8.70;99.90;;;;;;5039913;28;20441;-63
2023/11/16 10:00:36;;;;;;;3.73;2.33;;;8.70;99.90;;;;;;5038200;28;20978;-62
2023/11/16 10:03:05;;;;;;;7.47;2.00;;;8.70;99.90;;;;;;5039467;28;20418;-63
2023/11/16 10:05:40;;;;;;;6.93;2.30;;;8.80;99.90;;;;;;5046700;28;20449;-63
2023/11/16 10:08:08;;;;;;;5.77;2.37;;;8.80;99.90;;;;;;5038510;28;20472;-64
2023/11/16 10:10:35;;;;;;;4.50;2.00;;;8.90;99.90;;;;;;5022308;28;20461;-63
2023/11/16 10:13:03;;;;;;;3.93;1.30;;;9.00;99.90;;;;;;5049216;28;20412;-63
2023/11/16 10:15:30;;;;;;;6.43;2.67;;;8.90;99.90;;;;;;5041649;28;20900;-62
2023/11/16 10:17:56;;;;;;;1.77;1.30;;;8.90;99.90;;;;;;5036711;28;20818;-62
2023/11/16 10:20:23;;;;;;;8.70;3.83;;;9.00;99.90;;;;;;5046154;28;20439;-63
2023/11/16 10:22:52;;;;;;;6.43;3.67;;;9.10;99.90;;;;;;5048929;28;20214;-63
2023/11/16 10:25:17;;;;;;;1.83;0.90;;;9.30;99.90;;;;;;5039703;28;20433;-62
2023/11/16 10:27:43;;;;;;;2.87;1.20;;;9.30;99.90;;;;;;5050500;28;21120;-62
2023/11/16 10:30:15;;;;;;;2.50;2.00;;;9.40;99.90;;;;;;5047390;28;20175;-62
2023/11/16 10:32:42;;;;;;;1.97;0.83;;;9.60;99.90;;;;;;5041134;28;20505;-63
2023/11/16 10:35:13;;;;;;;1.50;0.80;;;9.50;99.90;;;;;;5044792;28;20549;-61
2023/11/16 10:37:41;;;;;;;2.83;0.80;;;9.40;99.90;;;;;;5043594;28;20798;-62
2023/11/16 10:40:10;;;;;;;1.83;1.10;;;9.40;99.90;;;;;;5047577;28;20417;-62
2023/11/16 10:42:38;;;;;;;1.00;0.90;;;9.50;99.90;;;;;;5047591;28;20457;-62
2023/11/16 10:45:05;;;;;;;1.80;1.00;;;9.50;99.90;;;;;;5040073;28;20931;-62
2023/11/16 10:47:32;;;;;;;1.80;1.10;;;9.50;99.90;;;;;;5047120;28;20467;-65
2023/11/16 10:49:58;;;;;;;5.63;1.27;;;9.30;99.90;;;;;;5040629;28;20420;-64
2023/11/16 10:52:26;;;;;;;0.83;0.70;;;9.30;99.90;;;;;;5040806;28;20422;-64
2023/11/16 10:54:55;;;;;;;2.23;1.10;;;9.40;99.90;;;;;;5042143;28;20468;-63
2023/11/16 10:57:21;;;;;;;1.10;0.70;;;9.40;99.90;;;;;;5041454;28;20462;-63
2023/11/16 10:59:50;;;;;;;1.23;1.03;;;9.60;99.90;;;;;;5041176;28;20962;-63
2023/11/16 11:02:17;;;;;;;1.63;0.90;;;9.60;99.90;;;;;;5041210;28;20281;-63
2023/11/16 11:04:43;;;;;;;1.00;0.80;;;9.70;99.90;;;;;;5049517;28;20411;-63
2023/11/16 11:07:12;;;;;;;2.30;1.10;;;9.80;99.90;;;;;;5044054;28;20413;-63
2023/11/16 11:09:42;;;;;;;1.30;1.00;;;10.00;99.90;;;;;;5047441;28;20696;-63
2023/11/16 11:12:15;;;;;;;1.27;1.13;;;9.80;99.90;;;;;;5046164;28;20429;-67
2023/11/16 11:14:48;;;;;;;1.43;1.20;;;9.70;99.90;;;;;;5060095;28;20797;-64
2023/11/16 11:17:18;;;;;;;1.97;1.20;;;9.60;99.90;;;;;;5044834;28;20832;-65
2023/11/16 11:19:54;;;;;;;2.87;1.57;;;9.80;99.90;;;;;;5048175;28;20977;-63
2023/11/16 11:22:25;;;;;;;1.93;1.53;;;10.00;99.90;;;;;;5057353;28;20520;-64
2023/11/16 11:24:50;;;;;;;2.30;2.00;;;10.10;99.90;;;;;;5049216;28;21106;-65
2023/11/16 11:27:16;;;;;;;0.97;0.87;;;10.30;99.90;;;;;;5049803;28;20418;-65
2023/11/16 11:29:42;;;;;;;1.67;1.00;;;10.00;99.90;;;;;;5044154;28;20604;-64
2023/11/16 11:32:18;;;;;;;1.50;0.90;;;9.70;99.90;;;;;;5046243;28;20289;-65
2023/11/16 11:34:44;;;;;;;1.33;1.10;;;9.50;99.90;;;;;;5043610;28;20425;-66
2023/11/16 11:37:14;;;;;;;1.50;0.90;;;9.50;99.90;;;;;;5045021;28;20445;-66
2023/11/16 11:39:46;;;;;;;1.23;0.97;;;9.50;99.90;;;;;;5052650;28;20199;-62
2023/11/16 11:42:16;;;;;;;1.30;1.00;;;9.40;99.90;;;;;;5051049;28;20982;-64
2023/11/16 11:44:52;;;;;;;0.90;0.80;;;9.00;99.90;;;;;;5040640;28;20443;-63
2023/11/16 11:47:20;;;;;;;1.37;0.90;;;9.00;99.90;;;;;;5054833;28;20421;-64
2023/11/16 11:49:48;;;;;;;1.40;0.87;;;8.80;99.90;;;;;;5055270;28;20444;-64
2023/11/16 11:52:16;;;;;;;2.73;1.33;;;8.90;99.90;;;;;;5051218;28;20456;-63
2023/11/16 11:54:43;;;;;;;0.80;0.80;;;9.00;99.90;;;;;;5050624;28;20519;-63
2023/11/16 11:57:09;;;;;;;2.40;1.10;;;9.10;99.90;;;;;;5051244;28;21211;-65
2023/11/16 11:59:38;;;;;;;1.23;1.00;;;9.00;99.90;;;;;;5051163;28;20467;-70
2023/11/16 12:02:07;;;;;;;1.30;0.93;;;9.20;99.90;;;;;;5055645;28;20205;-65
2023/11/16 12:04:35;;;;;;;1.93;0.90;;;9.20;99.90;;;;;;5048126;28;20933;-65
2023/11/16 12:07:07;;;;;;;2.40;1.13;;;9.30;99.90;;;;;;5049371;28;20934;-64
2023/11/16 12:09:36;;;;;;;2.17;1.00;;;9.20;99.90;;;;;;5052319;28;20440;-64
2023/11/16 12:12:03;;;;;;;0.80;0.80;;;9.20;99.90;;;;;;5053714;28;20433;-62
2023/11/16 12:14:36;;;;;;;1.90;1.00;;;8.90;99.90;;;;;;5050271;28;20522;-64
2023/11/16 12:17:04;;;;;;;1.63;1.37;;;8.90;99.90;;;;;;5049297;28;20440;-63
2023/11/16 12:19:31;;;;;;;2.20;1.33;;;8.90;99.90;;;;;;5046395;28;20437;-63
2023/11/16 12:21:56;;;;;;;1.63;1.07;;;9.10;99.90;;;;;;5047061;28;20967;-63
2023/11/16 12:24:27;;;;;;;1.00;0.87;;;9.30;99.90;;;;;;5052924;28;20433;-63
2023/11/16 12:26:53;;;;;;;1.67;1.40;;;9.60;99.90;;;;;;5048850;28;20553;-63
2023/11/16 12:29:23;;;;;;;1.97;1.27;;;9.40;99.90;;;;;;5052321;28;20533;-62
2023/11/16 12:31:49;;;;;;;1.30;1.20;;;9.20;99.90;;;;;;5057549;28;20409;-62
2023/11/16 12:34:15;;;;;;;0.80;0.80;;;9.10;99.90;;;;;;5049692;28;20441;-63
2023/11/16 12:36:44;;;;;;;1.00;0.80;;;9.00;99.90;;;;;;5051061;28;20517;-62
2023/11/16 12:39:10;;;;;;;2.40;1.03;;;8.90;99.90;;;;;;5054200;28;20677;-63
2023/11/16 12:41:39;;;;;;;1.23;1.00;;;9.10;99.90;;;;;;5045483;28;20516;-64
2023/11/16 12:44:06;;;;;;;1.20;0.97;;;9.20;99.90;;;;;;5061722;28;20472;-63
2023/11/16 12:46:31;;;;;;;1.00;0.80;;;9.20;99.90;;;;;;5054436;28;20781;-63
2023/11/16 12:48:57;;;;;;;1.73;1.07;;;9.20;99.90;;;;;;5047414;28;20430;-64
2023/11/16 12:51:24;;;;;;;0.77;0.70;;;9.20;99.90;;;;;;5047797;28;20241;-64
2023/11/16 12:53:50;;;;;;;1.30;1.07;;;9.10;99.90;;;;;;5048834;28;20266;-63
2023/11/16 12:56:17;;;;;;;1.07;0.93;;;8.90;99.90;;;;;;5051284;28;20857;-64
2023/11/16 12:58:43;;;;;;;1.23;0.80;;;8.90;99.90;;;;;;5046296;28;20528;-63
2023/11/16 13:01:12;;;;;;;1.43;0.83;;;8.80;99.90;;;;;;5051264;28;20467;-63